Humphrey, Nebraska
Current Conditions -  °F | °C
As of 3:55 PM on Thursday 27 Nov 2014 (Local Time) from KOLU Reporting Station
Clear Clear  
Wind Chill: 19°   Ceiling: Unl
Heat Index: 28°   Visibility: 10mi
Dew Point: 14°   Wind: 10mph
Humidity: 55%   Direction: 140°SE
Pressure: 30.26"   Gusts: NA
Location:  41.69°N, 97.48°W
Report Text: KOLU 272155Z AUTO 14009KT 10SM CLR M02/M10 A3026 RMK AO1
Loading
Personal Weather Stations






























Interactive Weather Map New forecast layout! Learn more

10-Day Weather Forecast

Advertisements
Track Severe Weather on mobile